sensor_id;sensor_type;location;lat;lon;timestamp;P1;durP1;ratioP1;P2;durP2;ratioP2
5058;SDS011;2548;52.050;11.036;2023-05-27T00:00:15;14.32;;;7.88;;
5058;SDS011;2548;52.050;11.036;2023-05-27T00:02:46;16.60;;;8.23;;
5058;SDS011;2548;52.050;11.036;2023-05-27T00:05:14;17.10;;;7.88;;
5058;SDS011;2548;52.050;11.036;2023-05-27T00:07:43;10.63;;;6.90;;
5058;SDS011;2548;52.050;11.036;2023-05-27T00:10:13;24.55;;;8.27;;
5058;SDS011;2548;52.050;11.036;2023-05-27T00:12:40;22.40;;;8.45;;
5058;SDS011;2548;52.050;11.036;2023-05-27T00:15:08;20.35;;;8.73;;
5058;SDS011;2548;52.050;11.036;2023-05-27T00:17:41;17.38;;;8.32;;
5058;SDS011;2548;52.050;11.036;2023-05-27T00:20:09;24.92;;;9.95;;
5058;SDS011;2548;52.050;11.036;2023-05-27T00:22:41;20.85;;;8.55;;
5058;SDS011;2548;52.050;11.036;2023-05-27T00:25:13;22.83;;;10.27;;
5058;SDS011;2548;52.050;11.036;2023-05-27T00:27:46;15.77;;;8.10;;
5058;SDS011;2548;52.050;11.036;2023-05-27T00:30:14;22.83;;;8.48;;
5058;SDS011;2548;52.050;11.036;2023-05-27T00:32:43;22.98;;;9.70;;
5058;SDS011;2548;52.050;11.036;2023-05-27T00:35:11;27.02;;;8.68;;
5058;SDS011;2548;52.050;11.036;2023-05-27T00:37:38;18.58;;;7.95;;
5058;SDS011;2548;52.050;11.036;2023-05-27T00:40:08;16.90;;;8.35;;
5058;SDS011;2548;52.050;11.036;2023-05-27T00:42:41;21.58;;;8.93;;
5058;SDS011;2548;52.050;11.036;2023-05-27T00:45:09;19.33;;;9.15;;
5058;SDS011;2548;52.050;11.036;2023-05-27T00:47:47;19.17;;;9.00;;
5058;SDS011;2548;52.050;11.036;2023-05-27T00:50:17;16.60;;;9.10;;
5058;SDS011;2548;52.050;11.036;2023-05-27T00:52:51;13.07;;;6.85;;
5058;SDS011;2548;52.050;11.036;2023-05-27T00:55:21;8.55;;;6.45;;
5058;SDS011;2548;52.050;11.036;2023-05-27T00:57:51;19.38;;;8.07;;
5058;SDS011;2548;52.050;11.036;2023-05-27T01:00:26;12.45;;;6.95;;
5058;SDS011;2548;52.050;11.036;2023-05-27T01:02:54;16.77;;;8.10;;
5058;SDS011;2548;52.050;11.036;2023-05-27T01:05:25;17.55;;;9.00;;
5058;SDS011;2548;52.050;11.036;2023-05-27T01:07:59;12.93;;;7.15;;
5058;SDS011;2548;52.050;11.036;2023-05-27T01:10:39;13.77;;;7.63;;
5058;SDS011;2548;52.050;11.036;2023-05-27T01:13:13;20.10;;;8.00;;
5058;SDS011;2548;52.050;11.036;2023-05-27T01:15:46;20.42;;;8.80;;
5058;SDS011;2548;52.050;11.036;2023-05-27T01:18:18;16.52;;;8.15;;
5058;SDS011;2548;52.050;11.036;2023-05-27T01:20:49;21.48;;;9.40;;
5058;SDS011;2548;52.050;11.036;2023-05-27T01:23:20;19.38;;;8.15;;
5058;SDS011;2548;52.050;11.036;2023-05-27T01:25:50;25.95;;;9.20;;
5058;SDS011;2548;52.050;11.036;2023-05-27T01:28:26;24.50;;;8.93;;
5058;SDS011;2548;52.050;11.036;2023-05-27T01:30:55;20.58;;;8.07;;
5058;SDS011;2548;52.050;11.036;2023-05-27T01:33:34;13.98;;;7.97;;
5058;SDS011;2548;52.050;11.036;2023-05-27T01:36:13;21.75;;;8.00;;
5058;SDS011;2548;52.050;11.036;2023-05-27T01:38:45;11.55;;;7.78;;
5058;SDS011;2548;52.050;11.036;2023-05-27T01:41:17;28.90;;;9.13;;
5058;SDS011;2548;52.050;11.036;2023-05-27T01:43:47;21.13;;;9.10;;
5058;SDS011;2548;52.050;11.036;2023-05-27T01:46:16;22.58;;;8.80;;
5058;SDS011;2548;52.050;11.036;2023-05-27T01:48:47;25.85;;;8.38;;
5058;SDS011;2548;52.050;11.036;2023-05-27T01:51:24;15.57;;;7.78;;
5058;SDS011;2548;52.050;11.036;2023-05-27T01:53:56;18.00;;;7.88;;
5058;SDS011;2548;52.050;11.036;2023-05-27T01:56:23;15.32;;;8.38;;
5058;SDS011;2548;52.050;11.036;2023-05-27T01:59:00;22.45;;;9.65;;
5058;SDS011;2548;52.050;11.036;2023-05-27T02:01:30;19.75;;;8.93;;
5058;SDS011;2548;52.050;11.036;2023-05-27T02:04:00;18.95;;;10.23;;
5058;SDS011;2548;52.050;11.036;2023-05-27T02:06:29;18.90;;;9.43;;
5058;SDS011;2548;52.050;11.036;2023-05-27T02:08:59;27.00;;;10.15;;
5058;SDS011;2548;52.050;11.036;2023-05-27T02:11:29;14.85;;;9.00;;
5058;SDS011;2548;52.050;11.036;2023-05-27T02:13:57;22.80;;;7.90;;
5058;SDS011;2548;52.050;11.036;2023-05-27T02:16:27;20.63;;;8.95;;
5058;SDS011;2548;52.050;11.036;2023-05-27T02:18:59;24.73;;;9.68;;
5058;SDS011;2548;52.050;11.036;2023-05-27T02:21:26;15.10;;;8.52;;
5058;SDS011;2548;52.050;11.036;2023-05-27T02:23:54;13.85;;;7.47;;
5058;SDS011;2548;52.050;11.036;2023-05-27T02:26:25;21.65;;;8.40;;
5058;SDS011;2548;52.050;11.036;2023-05-27T02:28:53;23.00;;;9.50;;
5058;SDS011;2548;52.050;11.036;2023-05-27T02:31:27;17.38;;;8.57;;
5058;SDS011;2548;52.050;11.036;2023-05-27T02:33:54;16.63;;;9.35;;
5058;SDS011;2548;52.050;11.036;2023-05-27T02:36:25;27.30;;;9.00;;
5058;SDS011;2548;52.050;11.036;2023-05-27T02:38:59;20.88;;;9.13;;
5058;SDS011;2548;52.050;11.036;2023-05-27T02:41:27;14.43;;;7.90;;
5058;SDS011;2548;52.050;11.036;2023-05-27T02:43:58;16.90;;;9.50;;
5058;SDS011;2548;52.050;11.036;2023-05-27T02:46:26;27.40;;;10.23;;
5058;SDS011;2548;52.050;11.036;2023-05-27T02:49:02;13.18;;;8.55;;
5058;SDS011;2548;52.050;11.036;2023-05-27T02:51:33;22.10;;;9.75;;
5058;SDS011;2548;52.050;11.036;2023-05-27T02:54:00;22.63;;;9.70;;
5058;SDS011;2548;52.050;11.036;2023-05-27T02:56:33;18.63;;;10.93;;
5058;SDS011;2548;52.050;11.036;2023-05-27T02:59:04;17.35;;;8.70;;
5058;SDS011;2548;52.050;11.036;2023-05-27T03:01:31;14.60;;;9.07;;
5058;SDS011;2548;52.050;11.036;2023-05-27T03:03:59;18.08;;;9.23;;
5058;SDS011;2548;52.050;11.036;2023-05-27T03:06:31;26.35;;;9.80;;
5058;SDS011;2548;52.050;11.036;2023-05-27T03:08:58;18.80;;;10.10;;
5058;SDS011;2548;52.050;11.036;2023-05-27T03:11:26;18.70;;;8.75;;
5058;SDS011;2548;52.050;11.036;2023-05-27T03:14:01;12.38;;;9.20;;
5058;SDS011;2548;52.050;11.036;2023-05-27T03:16:29;17.25;;;8.38;;
5058;SDS011;2548;52.050;11.036;2023-05-27T03:18:57;20.23;;;9.30;;
5058;SDS011;2548;52.050;11.036;2023-05-27T03:21:31;15.40;;;7.80;;
5058;SDS011;2548;52.050;11.036;2023-05-27T03:23:59;30.83;;;9.25;;
5058;SDS011;2548;52.050;11.036;2023-05-27T03:26:29;18.85;;;9.20;;
5058;SDS011;2548;52.050;11.036;2023-05-27T03:28:59;21.55;;;10.35;;
5058;SDS011;2548;52.050;11.036;2023-05-27T03:31:27;14.77;;;7.45;;
5058;SDS011;2548;52.050;11.036;2023-05-27T03:34:01;16.73;;;8.43;;
5058;SDS011;2548;52.050;11.036;2023-05-27T03:36:29;14.50;;;7.15;;
5058;SDS011;2548;52.050;11.036;2023-05-27T03:39:00;15.82;;;8.65;;
5058;SDS011;2548;52.050;11.036;2023-05-27T03:41:31;16.33;;;8.57;;
5058;SDS011;2548;52.050;11.036;2023-05-27T03:43:59;20.27;;;8.27;;
5058;SDS011;2548;52.050;11.036;2023-05-27T03:46:33;13.88;;;7.78;;
5058;SDS011;2548;52.050;11.036;2023-05-27T03:49:01;14.98;;;8.85;;
5058;SDS011;2548;52.050;11.036;2023-05-27T03:51:29;15.20;;;7.88;;
5058;SDS011;2548;52.050;11.036;2023-05-27T03:53:57;18.73;;;8.35;;
5058;SDS011;2548;52.050;11.036;2023-05-27T03:56:24;12.45;;;8.30;;
5058;SDS011;2548;52.050;11.036;2023-05-27T03:58:52;20.73;;;10.40;;
5058;SDS011;2548;52.050;11.036;2023-05-27T04:01:20;21.73;;;8.57;;
5058;SDS011;2548;52.050;11.036;2023-05-27T04:03:49;21.00;;;9.25;;
5058;SDS011;2548;52.050;11.036;2023-05-27T04:06:17;20.30;;;8.23;;
5058;SDS011;2548;52.050;11.036;2023-05-27T04:08:44;23.65;;;8.77;;
5058;SDS011;2548;52.050;11.036;2023-05-27T04:11:17;17.17;;;9.45;;
5058;SDS011;2548;52.050;11.036;2023-05-27T04:13:45;20.10;;;11.10;;
5058;SDS011;2548;52.050;11.036;2023-05-27T04:16:14;19.45;;;9.60;;
5058;SDS011;2548;52.050;11.036;2023-05-27T04:18:42;20.35;;;10.10;;
5058;SDS011;2548;52.050;11.036;2023-05-27T04:21:17;24.77;;;10.75;;
5058;SDS011;2548;52.050;11.036;2023-05-27T04:23:45;29.67;;;11.48;;
5058;SDS011;2548;52.050;11.036;2023-05-27T04:26:16;20.73;;;11.60;;
5058;SDS011;2548;52.050;11.036;2023-05-27T04:28:48;28.92;;;12.18;;
5058;SDS011;2548;52.050;11.036;2023-05-27T04:31:22;19.40;;;11.70;;
5058;SDS011;2548;52.050;11.036;2023-05-27T04:34:00;18.27;;;10.88;;
5058;SDS011;2548;52.050;11.036;2023-05-27T04:36:29;23.10;;;12.73;;
5058;SDS011;2548;52.050;11.036;2023-05-27T04:39:22;20.02;;;11.43;;
5058;SDS011;2548;52.050;11.036;2023-05-27T04:41:50;23.98;;;10.40;;
5058;SDS011;2548;52.050;11.036;2023-05-27T04:44:27;29.52;;;11.90;;
5058;SDS011;2548;52.050;11.036;2023-05-27T04:46:56;22.48;;;12.40;;
5058;SDS011;2548;52.050;11.036;2023-05-27T04:49:28;19.58;;;11.25;;
5058;SDS011;2548;52.050;11.036;2023-05-27T04:51:59;22.75;;;11.40;;
5058;SDS011;2548;52.050;11.036;2023-05-27T04:54:30;20.75;;;11.73;;
5058;SDS011;2548;52.050;11.036;2023-05-27T04:56:58;22.80;;;10.23;;
5058;SDS011;2548;52.050;11.036;2023-05-27T04:59:30;23.45;;;11.68;;
5058;SDS011;2548;52.050;11.036;2023-05-27T05:02:12;18.88;;;11.52;;
5058;SDS011;2548;52.050;11.036;2023-05-27T05:05:10;29.25;;;10.90;;
5058;SDS011;2548;52.050;11.036;2023-05-27T05:07:38;35.28;;;12.40;;
5058;SDS011;2548;52.050;11.036;2023-05-27T05:10:08;22.33;;;10.38;;
5058;SDS011;2548;52.050;11.036;2023-05-27T05:12:45;18.67;;;11.60;;
5058;SDS011;2548;52.050;11.036;2023-05-27T05:15:13;19.52;;;11.35;;
5058;SDS011;2548;52.050;11.036;2023-05-27T05:17:40;23.08;;;10.80;;
5058;SDS011;2548;52.050;11.036;2023-05-27T05:20:10;29.95;;;10.90;;
5058;SDS011;2548;52.050;11.036;2023-05-27T05:22:39;23.27;;;9.70;;
5058;SDS011;2548;52.050;11.036;2023-05-27T05:25:13;22.00;;;11.52;;
5058;SDS011;2548;52.050;11.036;2023-05-27T05:27:48;23.30;;;11.60;;
5058;SDS011;2548;52.050;11.036;2023-05-27T05:30:26;22.27;;;10.75;;
5058;SDS011;2548;52.050;11.036;2023-05-27T05:32:53;23.75;;;11.50;;
5058;SDS011;2548;52.050;11.036;2023-05-27T05:35:31;21.65;;;11.23;;
5058;SDS011;2548;52.050;11.036;2023-05-27T05:38:19;26.63;;;10.30;;
5058;SDS011;2548;52.050;11.036;2023-05-27T05:40:52;20.50;;;10.20;;
5058;SDS011;2548;52.050;11.036;2023-05-27T05:43:21;21.02;;;11.35;;
5058;SDS011;2548;52.050;11.036;2023-05-27T05:45:57;22.77;;;11.57;;
5058;SDS011;2548;52.050;11.036;2023-05-27T05:48:27;32.67;;;11.38;;
5058;SDS011;2548;52.050;11.036;2023-05-27T05:50:57;34.72;;;11.85;;
5058;SDS011;2548;52.050;11.036;2023-05-27T05:53:26;26.65;;;11.77;;
5058;SDS011;2548;52.050;11.036;2023-05-27T05:55:58;26.45;;;11.82;;
5058;SDS011;2548;52.050;11.036;2023-05-27T05:58:25;38.08;;;11.50;;
5058;SDS011;2548;52.050;11.036;2023-05-27T06:00:53;21.20;;;10.82;;
5058;SDS011;2548;52.050;11.036;2023-05-27T06:03:41;14.98;;;9.77;;
5058;SDS011;2548;52.050;11.036;2023-05-27T06:06:34;32.10;;;11.77;;
5058;SDS011;2548;52.050;11.036;2023-05-27T06:09:24;27.90;;;10.45;;
5058;SDS011;2548;52.050;11.036;2023-05-27T06:11:55;20.33;;;10.02;;
5058;SDS011;2548;52.050;11.036;2023-05-27T06:14:23;28.17;;;11.13;;
5058;SDS011;2548;52.050;11.036;2023-05-27T06:16:54;31.05;;;11.65;;
5058;SDS011;2548;52.050;11.036;2023-05-27T06:19:22;30.20;;;10.52;;
5058;SDS011;2548;52.050;11.036;2023-05-27T06:21:56;26.67;;;11.82;;
5058;SDS011;2548;52.050;11.036;2023-05-27T06:24:42;25.42;;;11.05;;
5058;SDS011;2548;52.050;11.036;2023-05-27T06:27:17;19.33;;;8.93;;
5058;SDS011;2548;52.050;11.036;2023-05-27T06:29:46;23.58;;;10.38;;
5058;SDS011;2548;52.050;11.036;2023-05-27T06:32:29;14.57;;;7.70;;
5058;SDS011;2548;52.050;11.036;2023-05-27T06:35:02;20.08;;;10.13;;
5058;SDS011;2548;52.050;11.036;2023-05-27T06:37:31;17.50;;;8.68;;
5058;SDS011;2548;52.050;11.036;2023-05-27T06:39:58;18.73;;;8.60;;
5058;SDS011;2548;52.050;11.036;2023-05-27T06:42:26;18.42;;;8.57;;
5058;SDS011;2548;52.050;11.036;2023-05-27T06:45:06;21.73;;;9.18;;
5058;SDS011;2548;52.050;11.036;2023-05-27T06:47:36;21.83;;;8.30;;
5058;SDS011;2548;52.050;11.036;2023-05-27T06:50:03;14.45;;;8.15;;
5058;SDS011;2548;52.050;11.036;2023-05-27T06:52:36;15.43;;;6.68;;
5058;SDS011;2548;52.050;11.036;2023-05-27T06:55:26;18.73;;;7.10;;
5058;SDS011;2548;52.050;11.036;2023-05-27T06:58:31;32.75;;;8.35;;
5058;SDS011;2548;52.050;11.036;2023-05-27T07:01:01;17.17;;;7.25;;
5058;SDS011;2548;52.050;11.036;2023-05-27T07:03:42;23.02;;;7.95;;
5058;SDS011;2548;52.050;11.036;2023-05-27T07:06:14;14.80;;;6.28;;
5058;SDS011;2548;52.050;11.036;2023-05-27T07:08:51;23.65;;;7.97;;
5058;SDS011;2548;52.050;11.036;2023-05-27T07:11:25;17.77;;;6.53;;
5058;SDS011;2548;52.050;11.036;2023-05-27T07:13:58;25.13;;;8.02;;
5058;SDS011;2548;52.050;11.036;2023-05-27T07:16:29;18.05;;;7.63;;
5058;SDS011;2548;52.050;11.036;2023-05-27T07:19:13;17.73;;;6.88;;
5058;SDS011;2548;52.050;11.036;2023-05-27T07:21:52;22.70;;;7.00;;
5058;SDS011;2548;52.050;11.036;2023-05-27T07:24:25;19.52;;;6.78;;
5058;SDS011;2548;52.050;11.036;2023-05-27T07:26:55;17.65;;;6.00;;
5058;SDS011;2548;52.050;11.036;2023-05-27T07:29:28;23.92;;;6.68;;
5058;SDS011;2548;52.050;11.036;2023-05-27T07:32:15;19.42;;;5.82;;
5058;SDS011;2548;52.050;11.036;2023-05-27T07:34:43;19.90;;;6.05;;
5058;SDS011;2548;52.050;11.036;2023-05-27T07:37:14;14.00;;;5.68;;
5058;SDS011;2548;52.050;11.036;2023-05-27T07:39:42;15.10;;;4.97;;
5058;SDS011;2548;52.050;11.036;2023-05-27T07:42:13;19.70;;;5.88;;
5058;SDS011;2548;52.050;11.036;2023-05-27T07:44:40;21.73;;;6.00;;
5058;SDS011;2548;52.050;11.036;2023-05-27T07:47:18;22.80;;;6.18;;
5058;SDS011;2548;52.050;11.036;2023-05-27T07:49:55;16.38;;;4.30;;
5058;SDS011;2548;52.050;11.036;2023-05-27T07:52:47;20.83;;;5.88;;
5058;SDS011;2548;52.050;11.036;2023-05-27T07:55:30;14.98;;;4.65;;
5058;SDS011;2548;52.050;11.036;2023-05-27T07:57:58;13.05;;;4.65;;
5058;SDS011;2548;52.050;11.036;2023-05-27T08:00:32;22.60;;;6.03;;
5058;SDS011;2548;52.050;11.036;2023-05-27T08:02:59;18.23;;;5.10;;
5058;SDS011;2548;52.050;11.036;2023-05-27T08:05:48;11.73;;;4.80;;
5058;SDS011;2548;52.050;11.036;2023-05-27T08:08:31;16.42;;;5.78;;
5058;SDS011;2548;52.050;11.036;2023-05-27T08:11:22;14.77;;;5.03;;
5058;SDS011;2548;52.050;11.036;2023-05-27T08:14:08;16.73;;;4.57;;
5058;SDS011;2548;52.050;11.036;2023-05-27T08:16:45;8.35;;;4.88;;
5058;SDS011;2548;52.050;11.036;2023-05-27T08:19:28;9.43;;;3.77;;
5058;SDS011;2548;52.050;11.036;2023-05-27T08:22:10;8.85;;;3.80;;
5058;SDS011;2548;52.050;11.036;2023-05-27T08:25:13;14.68;;;4.45;;
5058;SDS011;2548;52.050;11.036;2023-05-27T08:28:02;16.88;;;4.32;;
5058;SDS011;2548;52.050;11.036;2023-05-27T08:31:07;11.10;;;4.28;;
5058;SDS011;2548;52.050;11.036;2023-05-27T08:33:42;18.07;;;4.77;;
5058;SDS011;2548;52.050;11.036;2023-05-27T08:36:11;18.10;;;4.70;;
5058;SDS011;2548;52.050;11.036;2023-05-27T08:38:43;20.20;;;5.50;;
5058;SDS011;2548;52.050;11.036;2023-05-27T08:41:29;13.57;;;5.82;;
5058;SDS011;2548;52.050;11.036;2023-05-27T08:44:02;20.02;;;3.97;;
5058;SDS011;2548;52.050;11.036;2023-05-27T08:46:30;12.20;;;4.53;;
5058;SDS011;2548;52.050;11.036;2023-05-27T08:48:59;12.37;;;4.27;;
5058;SDS011;2548;52.050;11.036;2023-05-27T08:51:30;14.43;;;4.40;;
5058;SDS011;2548;52.050;11.036;2023-05-27T08:53:58;14.80;;;4.07;;
5058;SDS011;2548;52.050;11.036;2023-05-27T08:56:25;7.90;;;4.30;;
5058;SDS011;2548;52.050;11.036;2023-05-27T08:59:00;11.00;;;4.47;;
5058;SDS011;2548;52.050;11.036;2023-05-27T09:01:28;13.75;;;4.18;;
5058;SDS011;2548;52.050;11.036;2023-05-27T09:03:58;13.90;;;4.60;;
5058;SDS011;2548;52.050;11.036;2023-05-27T09:06:31;14.17;;;5.20;;
5058;SDS011;2548;52.050;11.036;2023-05-27T09:08:59;9.90;;;4.00;;
5058;SDS011;2548;52.050;11.036;2023-05-27T09:11:27;12.03;;;4.50;;
5058;SDS011;2548;52.050;11.036;2023-05-27T09:13:56;9.40;;;4.80;;
5058;SDS011;2548;52.050;11.036;2023-05-27T09:16:25;17.57;;;4.57;;
5058;SDS011;2548;52.050;11.036;2023-05-27T09:18:52;14.07;;;4.00;;
5058;SDS011;2548;52.050;11.036;2023-05-27T09:21:20;14.53;;;5.10;;
5058;SDS011;2548;52.050;11.036;2023-05-27T09:23:47;12.77;;;4.30;;
5058;SDS011;2548;52.050;11.036;2023-05-27T09:26:17;14.77;;;4.90;;
5058;SDS011;2548;52.050;11.036;2023-05-27T09:28:46;11.00;;;4.03;;
5058;SDS011;2548;52.050;11.036;2023-05-27T09:31:16;8.57;;;3.90;;
5058;SDS011;2548;52.050;11.036;2023-05-27T09:33:54;14.67;;;3.93;;
5058;SDS011;2548;52.050;11.036;2023-05-27T09:36:21;18.43;;;5.07;;
5058;SDS011;2548;52.050;11.036;2023-05-27T09:38:55;15.68;;;4.82;;
5058;SDS011;2548;52.050;11.036;2023-05-27T09:41:25;12.18;;;4.55;;
5058;SDS011;2548;52.050;11.036;2023-05-27T09:43:53;14.83;;;4.60;;
5058;SDS011;2548;52.050;11.036;2023-05-27T09:46:24;12.07;;;4.10;;
5058;SDS011;2548;52.050;11.036;2023-05-27T09:48:56;9.50;;;4.87;;
5058;SDS011;2548;52.050;11.036;2023-05-27T09:51:31;10.97;;;4.93;;
5058;SDS011;2548;52.050;11.036;2023-05-27T09:54:02;19.87;;;5.50;;
5058;SDS011;2548;52.050;11.036;2023-05-27T09:56:30;10.23;;;4.53;;
5058;SDS011;2548;52.050;11.036;2023-05-27T09:58:58;13.73;;;5.37;;
5058;SDS011;2548;52.050;11.036;2023-05-27T10:01:28;19.40;;;4.90;;
5058;SDS011;2548;52.050;11.036;2023-05-27T10:04:00;12.57;;;3.90;;
5058;SDS011;2548;52.050;11.036;2023-05-27T10:06:29;10.47;;;4.90;;
5058;SDS011;2548;52.050;11.036;2023-05-27T10:09:14;12.23;;;4.77;;
5058;SDS011;2548;52.050;11.036;2023-05-27T10:11:43;11.80;;;5.60;;
5058;SDS011;2548;52.050;11.036;2023-05-27T10:14:21;15.30;;;4.50;;
5058;SDS011;2548;52.050;11.036;2023-05-27T10:17:01;10.83;;;3.90;;
5058;SDS011;2548;52.050;11.036;2023-05-27T10:19:30;14.33;;;4.27;;
5058;SDS011;2548;52.050;11.036;2023-05-27T10:22:07;14.33;;;4.03;;
5058;SDS011;2548;52.050;11.036;2023-05-27T10:24:35;8.80;;;4.00;;
5058;SDS011;2548;52.050;11.036;2023-05-27T10:27:03;11.13;;;4.80;;
5058;SDS011;2548;52.050;11.036;2023-05-27T10:29:35;9.07;;;4.20;;
5058;SDS011;2548;52.050;11.036;2023-05-27T10:32:04;12.57;;;4.63;;
5058;SDS011;2548;52.050;11.036;2023-05-27T10:34:36;8.67;;;4.40;;
5058;SDS011;2548;52.050;11.036;2023-05-27T10:37:04;20.03;;;5.70;;
5058;SDS011;2548;52.050;11.036;2023-05-27T10:39:32;9.37;;;4.90;;
5058;SDS011;2548;52.050;11.036;2023-05-27T10:42:00;11.70;;;4.87;;
5058;SDS011;2548;52.050;11.036;2023-05-27T10:44:29;11.70;;;4.20;;
5058;SDS011;2548;52.050;11.036;2023-05-27T10:46:59;10.83;;;4.20;;
5058;SDS011;2548;52.050;11.036;2023-05-27T10:49:28;16.53;;;4.00;;
5058;SDS011;2548;52.050;11.036;2023-05-27T10:52:06;9.37;;;4.67;;
5058;SDS011;2548;52.050;11.036;2023-05-27T10:54:36;16.00;;;4.90;;
5058;SDS011;2548;52.050;11.036;2023-05-27T10:57:04;10.60;;;4.40;;
5058;SDS011;2548;52.050;11.036;2023-05-27T10:59:38;8.70;;;4.57;;
5058;SDS011;2548;52.050;11.036;2023-05-27T11:02:08;13.47;;;4.73;;
5058;SDS011;2548;52.050;11.036;2023-05-27T11:04:36;18.80;;;4.53;;
5058;SDS011;2548;52.050;11.036;2023-05-27T11:07:05;15.90;;;5.10;;
5058;SDS011;2548;52.050;11.036;2023-05-27T11:09:42;11.33;;;4.20;;
5058;SDS011;2548;52.050;11.036;2023-05-27T11:12:12;16.70;;;4.17;;
5058;SDS011;2548;52.050;11.036;2023-05-27T11:14:42;11.63;;;3.60;;
5058;SDS011;2548;52.050;11.036;2023-05-27T11:17:10;13.03;;;4.33;;
5058;SDS011;2548;52.050;11.036;2023-05-27T11:19:38;14.80;;;4.47;;
5058;SDS011;2548;52.050;11.036;2023-05-27T11:22:08;6.13;;;3.57;;
5058;SDS011;2548;52.050;11.036;2023-05-27T11:24:36;7.27;;;4.07;;
5058;SDS011;2548;52.050;11.036;2023-05-27T11:27:08;9.30;;;4.10;;
5058;SDS011;2548;52.050;11.036;2023-05-27T11:29:36;16.17;;;4.20;;
5058;SDS011;2548;52.050;11.036;2023-05-27T11:32:04;7.77;;;3.80;;
5058;SDS011;2548;52.050;11.036;2023-05-27T11:34:33;8.10;;;3.70;;
5058;SDS011;2548;52.050;11.036;2023-05-27T11:37:02;11.50;;;4.77;;
5058;SDS011;2548;52.050;11.036;2023-05-27T11:39:32;8.20;;;4.60;;
5058;SDS011;2548;52.050;11.036;2023-05-27T11:42:00;10.27;;;4.67;;
5058;SDS011;2548;52.050;11.036;2023-05-27T11:44:33;8.67;;;3.87;;
5058;SDS011;2548;52.050;11.036;2023-05-27T11:47:00;8.87;;;4.60;;
5058;SDS011;2548;52.050;11.036;2023-05-27T11:49:28;10.93;;;4.17;;
5058;SDS011;2548;52.050;11.036;2023-05-27T11:51:56;8.90;;;3.60;;
5058;SDS011;2548;52.050;11.036;2023-05-27T11:54:25;7.70;;;3.83;;
5058;SDS011;2548;52.050;11.036;2023-05-27T11:56:56;9.77;;;3.80;;
5058;SDS011;2548;52.050;11.036;2023-05-27T11:59:24;15.00;;;4.60;;
5058;SDS011;2548;52.050;11.036;2023-05-27T12:01:52;14.13;;;4.27;;
5058;SDS011;2548;52.050;11.036;2023-05-27T12:04:20;9.47;;;3.83;;
5058;SDS011;2548;52.050;11.036;2023-05-27T12:06:48;7.60;;;3.53;;
5058;SDS011;2548;52.050;11.036;2023-05-27T12:09:16;6.80;;;3.90;;
5058;SDS011;2548;52.050;11.036;2023-05-27T12:11:45;11.17;;;4.60;;
5058;SDS011;2548;52.050;11.036;2023-05-27T12:14:14;13.83;;;4.67;;
5058;SDS011;2548;52.050;11.036;2023-05-27T12:16:41;17.40;;;3.73;;
5058;SDS011;2548;52.050;11.036;2023-05-27T12:19:09;18.03;;;4.70;;
5058;SDS011;2548;52.050;11.036;2023-05-27T12:21:37;9.00;;;3.70;;
5058;SDS011;2548;52.050;11.036;2023-05-27T12:24:05;9.60;;;3.70;;
5058;SDS011;2548;52.050;11.036;2023-05-27T12:26:33;11.93;;;3.83;;
5058;SDS011;2548;52.050;11.036;2023-05-27T12:29:06;9.23;;;3.93;;
5058;SDS011;2548;52.050;11.036;2023-05-27T12:31:36;7.50;;;3.87;;
5058;SDS011;2548;52.050;11.036;2023-05-27T12:34:04;11.10;;;3.80;;
5058;SDS011;2548;52.050;11.036;2023-05-27T12:36:32;11.53;;;3.83;;
5058;SDS011;2548;52.050;11.036;2023-05-27T12:39:08;15.13;;;5.80;;
5058;SDS011;2548;52.050;11.036;2023-05-27T12:41:37;12.47;;;4.07;;
5058;SDS011;2548;52.050;11.036;2023-05-27T12:44:05;9.00;;;4.03;;
5058;SDS011;2548;52.050;11.036;2023-05-27T12:46:36;7.20;;;3.70;;
5058;SDS011;2548;52.050;11.036;2023-05-27T12:49:10;8.70;;;4.00;;
5058;SDS011;2548;52.050;11.036;2023-05-27T12:51:38;6.03;;;3.00;;
5058;SDS011;2548;52.050;11.036;2023-05-27T12:54:05;9.17;;;4.20;;
5058;SDS011;2548;52.050;11.036;2023-05-27T12:56:33;6.40;;;2.97;;
5058;SDS011;2548;52.050;11.036;2023-05-27T12:59:01;10.13;;;3.87;;
5058;SDS011;2548;52.050;11.036;2023-05-27T13:01:28;9.33;;;4.03;;
5058;SDS011;2548;52.050;11.036;2023-05-27T13:03:57;13.27;;;3.90;;
5058;SDS011;2548;52.050;11.036;2023-05-27T13:06:25;10.40;;;3.70;;
5058;SDS011;2548;52.050;11.036;2023-05-27T13:08:53;8.33;;;3.90;;
5058;SDS011;2548;52.050;11.036;2023-05-27T13:11:22;4.57;;;3.13;;
5058;SDS011;2548;52.050;11.036;2023-05-27T13:13:52;7.87;;;3.70;;
5058;SDS011;2548;52.050;11.036;2023-05-27T13:16:22;10.57;;;4.40;;
5058;SDS011;2548;52.050;11.036;2023-05-27T13:18:50;16.13;;;3.97;;
5058;SDS011;2548;52.050;11.036;2023-05-27T13:21:19;7.10;;;3.90;;
5058;SDS011;2548;52.050;11.036;2023-05-27T13:23:47;8.40;;;4.00;;
5058;SDS011;2548;52.050;11.036;2023-05-27T13:26:15;5.50;;;3.23;;
5058;SDS011;2548;52.050;11.036;2023-05-27T13:28:44;11.90;;;3.77;;
5058;SDS011;2548;52.050;11.036;2023-05-27T13:31:15;8.93;;;3.30;;
5058;SDS011;2548;52.050;11.036;2023-05-27T13:33:43;8.63;;;3.87;;
5058;SDS011;2548;52.050;11.036;2023-05-27T13:36:11;12.70;;;4.07;;
5058;SDS011;2548;52.050;11.036;2023-05-27T13:38:40;10.90;;;4.43;;
5058;SDS011;2548;52.050;11.036;2023-05-27T13:41:09;11.17;;;3.57;;
5058;SDS011;2548;52.050;11.036;2023-05-27T13:43:37;21.10;;;3.50;;
5058;SDS011;2548;52.050;11.036;2023-05-27T13:46:07;4.40;;;3.30;;
5058;SDS011;2548;52.050;11.036;2023-05-27T13:48:35;8.03;;;3.73;;
5058;SDS011;2548;52.050;11.036;2023-05-27T13:51:03;6.87;;;3.27;;
5058;SDS011;2548;52.050;11.036;2023-05-27T13:53:31;14.13;;;3.87;;
5058;SDS011;2548;52.050;11.036;2023-05-27T13:56:00;17.73;;;4.17;;
5058;SDS011;2548;52.050;11.036;2023-05-27T13:58:30;8.70;;;3.80;;
5058;SDS011;2548;52.050;11.036;2023-05-27T14:00:58;10.63;;;3.27;;
5058;SDS011;2548;52.050;11.036;2023-05-27T14:03:28;9.70;;;4.20;;
5058;SDS011;2548;52.050;11.036;2023-05-27T14:05:56;8.60;;;4.07;;
5058;SDS011;2548;52.050;11.036;2023-05-27T14:08:24;8.30;;;3.90;;
5058;SDS011;2548;52.050;11.036;2023-05-27T14:10:57;13.50;;;3.67;;
5058;SDS011;2548;52.050;11.036;2023-05-27T14:13:26;7.97;;;3.80;;
5058;SDS011;2548;52.050;11.036;2023-05-27T14:15:54;11.43;;;4.27;;
5058;SDS011;2548;52.050;11.036;2023-05-27T14:18:22;4.70;;;3.40;;
5058;SDS011;2548;52.050;11.036;2023-05-27T14:20:52;8.00;;;3.60;;
5058;SDS011;2548;52.050;11.036;2023-05-27T14:23:20;7.97;;;3.63;;
5058;SDS011;2548;52.050;11.036;2023-05-27T14:25:47;11.63;;;4.17;;
5058;SDS011;2548;52.050;11.036;2023-05-27T14:28:16;9.77;;;3.93;;
5058;SDS011;2548;52.050;11.036;2023-05-27T14:30:44;8.40;;;3.10;;
5058;SDS011;2548;52.050;11.036;2023-05-27T14:33:15;8.10;;;3.70;;
5058;SDS011;2548;52.050;11.036;2023-05-27T14:35:42;8.73;;;3.80;;
5058;SDS011;2548;52.050;11.036;2023-05-27T14:38:12;6.97;;;3.60;;
5058;SDS011;2548;52.050;11.036;2023-05-27T14:40:39;7.67;;;3.77;;
5058;SDS011;2548;52.050;11.036;2023-05-27T14:43:09;12.27;;;4.90;;
5058;SDS011;2548;52.050;11.036;2023-05-27T14:45:39;5.67;;;3.80;;
5058;SDS011;2548;52.050;11.036;2023-05-27T14:48:09;8.23;;;3.77;;
5058;SDS011;2548;52.050;11.036;2023-05-27T14:50:37;9.57;;;4.20;;
5058;SDS011;2548;52.050;11.036;2023-05-27T14:53:05;7.97;;;3.87;;
5058;SDS011;2548;52.050;11.036;2023-05-27T14:55:33;8.77;;;4.00;;
5058;SDS011;2548;52.050;11.036;2023-05-27T14:58:01;11.10;;;3.73;;
5058;SDS011;2548;52.050;11.036;2023-05-27T15:00:30;15.10;;;3.70;;
5058;SDS011;2548;52.050;11.036;2023-05-27T15:02:59;10.77;;;4.30;;
5058;SDS011;2548;52.050;11.036;2023-05-27T15:05:27;6.60;;;3.57;;
5058;SDS011;2548;52.050;11.036;2023-05-27T15:07:54;8.77;;;3.90;;
5058;SDS011;2548;52.050;11.036;2023-05-27T15:10:23;14.03;;;4.07;;
5058;SDS011;2548;52.050;11.036;2023-05-27T15:12:51;12.13;;;3.53;;